sensor_id;sensor_type;location;lat;lon;timestamp;P1;durP1;ratioP1;P2;durP2;ratioP2
40162;SDS011;25881;47.462;19.304;2024-02-21T00:00:18;7.67;;;6.87;;
40162;SDS011;25881;47.462;19.304;2024-02-21T00:02:43;7.28;;;6.25;;
40162;SDS011;25881;47.462;19.304;2024-02-21T00:05:09;8.37;;;7.10;;
40162;SDS011;25881;47.462;19.304;2024-02-21T00:07:34;10.85;;;7.28;;
40162;SDS011;25881;47.462;19.304;2024-02-21T00:09:59;9.37;;;7.67;;
40162;SDS011;25881;47.462;19.304;2024-02-21T00:12:25;8.40;;;7.25;;
40162;SDS011;25881;47.462;19.304;2024-02-21T00:14:50;8.90;;;6.60;;
40162;SDS011;25881;47.462;19.304;2024-02-21T00:17:15;8.40;;;7.60;;
40162;SDS011;25881;47.462;19.304;2024-02-21T00:19:41;12.17;;;8.67;;
40162;SDS011;25881;47.462;19.304;2024-02-21T00:22:06;11.40;;;8.13;;
40162;SDS011;25881;47.462;19.304;2024-02-21T00:24:31;10.23;;;8.50;;
40162;SDS011;25881;47.462;19.304;2024-02-21T00:26:56;8.53;;;7.67;;
40162;SDS011;25881;47.462;19.304;2024-02-21T00:29:22;9.57;;;8.03;;
40162;SDS011;25881;47.462;19.304;2024-02-21T00:31:47;10.83;;;8.07;;
40162;SDS011;25881;47.462;19.304;2024-02-21T00:34:13;9.88;;;7.70;;
40162;SDS011;25881;47.462;19.304;2024-02-21T00:36:38;8.37;;;7.27;;
40162;SDS011;25881;47.462;19.304;2024-02-21T00:39:03;8.38;;;7.38;;
40162;SDS011;25881;47.462;19.304;2024-02-21T00:41:29;9.30;;;7.18;;
40162;SDS011;25881;47.462;19.304;2024-02-21T00:43:54;7.90;;;6.93;;
40162;SDS011;25881;47.462;19.304;2024-02-21T00:46:19;10.53;;;6.60;;
40162;SDS011;25881;47.462;19.304;2024-02-21T00:48:44;9.80;;;6.83;;
40162;SDS011;25881;47.462;19.304;2024-02-21T00:51:10;7.43;;;5.93;;
40162;SDS011;25881;47.462;19.304;2024-02-21T00:53:35;7.30;;;5.78;;
40162;SDS011;25881;47.462;19.304;2024-02-21T00:56:03;10.95;;;5.72;;
40162;SDS011;25881;47.462;19.304;2024-02-21T00:58:28;7.22;;;5.15;;
40162;SDS011;25881;47.462;19.304;2024-02-21T01:00:54;8.67;;;5.37;;
40162;SDS011;25881;47.462;19.304;2024-02-21T01:03:19;6.77;;;4.53;;
40162;SDS011;25881;47.462;19.304;2024-02-21T01:05:44;10.17;;;5.33;;
40162;SDS011;25881;47.462;19.304;2024-02-21T01:08:09;6.53;;;4.63;;
40162;SDS011;25881;47.462;19.304;2024-02-21T01:10:34;9.03;;;4.70;;
40162;SDS011;25881;47.462;19.304;2024-02-21T01:13:00;6.50;;;4.50;;
40162;SDS011;25881;47.462;19.304;2024-02-21T01:15:25;8.07;;;4.43;;
40162;SDS011;25881;47.462;19.304;2024-02-21T01:17:50;8.45;;;4.20;;
40162;SDS011;25881;47.462;19.304;2024-02-21T01:20:19;6.18;;;4.28;;
40162;SDS011;25881;47.462;19.304;2024-02-21T01:22:44;8.00;;;4.20;;
40162;SDS011;25881;47.462;19.304;2024-02-21T01:25:09;8.37;;;4.23;;
40162;SDS011;25881;47.462;19.304;2024-02-21T01:27:35;6.43;;;3.57;;
40162;SDS011;25881;47.462;19.304;2024-02-21T01:30:00;7.20;;;3.97;;
40162;SDS011;25881;47.462;19.304;2024-02-21T01:32:25;6.00;;;4.23;;
40162;SDS011;25881;47.462;19.304;2024-02-21T01:34:51;6.47;;;3.90;;
40162;SDS011;25881;47.462;19.304;2024-02-21T01:37:16;5.20;;;3.78;;
40162;SDS011;25881;47.462;19.304;2024-02-21T01:39:41;6.43;;;3.53;;
40162;SDS011;25881;47.462;19.304;2024-02-21T01:42:06;5.57;;;3.10;;
40162;SDS011;25881;47.462;19.304;2024-02-21T01:44:32;4.57;;;2.87;;
40162;SDS011;25881;47.462;19.304;2024-02-21T01:46:57;5.67;;;2.70;;
40162;SDS011;25881;47.462;19.304;2024-02-21T01:49:22;4.43;;;2.70;;
40162;SDS011;25881;47.462;19.304;2024-02-21T01:51:47;5.63;;;2.60;;
40162;SDS011;25881;47.462;19.304;2024-02-21T01:54:13;4.73;;;2.80;;
40162;SDS011;25881;47.462;19.304;2024-02-21T01:56:38;6.10;;;2.97;;
40162;SDS011;25881;47.462;19.304;2024-02-21T01:59:04;7.28;;;2.92;;
40162;SDS011;25881;47.462;19.304;2024-02-21T02:01:29;7.70;;;3.00;;
40162;SDS011;25881;47.462;19.304;2024-02-21T02:03:54;5.90;;;2.83;;
40162;SDS011;25881;47.462;19.304;2024-02-21T02:06:20;5.70;;;3.25;;
40162;SDS011;25881;47.462;19.304;2024-02-21T02:08:45;5.37;;;2.97;;
40162;SDS011;25881;47.462;19.304;2024-02-21T02:11:10;7.50;;;2.97;;
40162;SDS011;25881;47.462;19.304;2024-02-21T02:13:38;6.07;;;2.60;;
40162;SDS011;25881;47.462;19.304;2024-02-21T02:16:03;12.10;;;3.03;;
40162;SDS011;25881;47.462;19.304;2024-02-21T02:18:28;6.30;;;2.63;;
40162;SDS011;25881;47.462;19.304;2024-02-21T02:20:54;6.47;;;3.03;;
40162;SDS011;25881;47.462;19.304;2024-02-21T02:23:31;9.15;;;3.65;;
40162;SDS011;25881;47.462;19.304;2024-02-21T02:25:57;3.85;;;2.72;;
40162;SDS011;25881;47.462;19.304;2024-02-21T02:28:22;6.30;;;3.03;;
40162;SDS011;25881;47.462;19.304;2024-02-21T02:30:48;5.43;;;3.00;;
40162;SDS011;25881;47.462;19.304;2024-02-21T02:33:13;7.03;;;3.13;;
40162;SDS011;25881;47.462;19.304;2024-02-21T02:35:38;4.75;;;2.92;;
40162;SDS011;25881;47.462;19.304;2024-02-21T02:38:04;9.90;;;3.47;;
40162;SDS011;25881;47.462;19.304;2024-02-21T02:40:29;7.03;;;3.17;;
40162;SDS011;25881;47.462;19.304;2024-02-21T02:42:54;7.72;;;3.00;;
40162;SDS011;25881;47.462;19.304;2024-02-21T02:45:20;7.93;;;3.63;;
40162;SDS011;25881;47.462;19.304;2024-02-21T02:47:46;7.05;;;2.97;;
40162;SDS011;25881;47.462;19.304;2024-02-21T02:50:11;7.85;;;3.70;;
40162;SDS011;25881;47.462;19.304;2024-02-21T02:52:37;4.88;;;3.03;;
40162;SDS011;25881;47.462;19.304;2024-02-21T02:55:02;6.30;;;3.37;;
40162;SDS011;25881;47.462;19.304;2024-02-21T02:57:28;6.40;;;2.95;;
40162;SDS011;25881;47.462;19.304;2024-02-21T02:59:53;8.03;;;3.20;;
40162;SDS011;25881;47.462;19.304;2024-02-21T03:02:18;9.53;;;3.07;;
40162;SDS011;25881;47.462;19.304;2024-02-21T03:04:44;7.85;;;3.42;;
40162;SDS011;25881;47.462;19.304;2024-02-21T03:07:09;8.32;;;3.45;;
40162;SDS011;25881;47.462;19.304;2024-02-21T03:09:36;6.22;;;3.10;;
40162;SDS011;25881;47.462;19.304;2024-02-21T03:12:01;4.55;;;3.00;;
40162;SDS011;25881;47.462;19.304;2024-02-21T03:14:29;10.98;;;4.10;;
40162;SDS011;25881;47.462;19.304;2024-02-21T03:16:55;7.97;;;3.97;;
40162;SDS011;25881;47.462;19.304;2024-02-21T03:19:20;7.80;;;3.67;;
40162;SDS011;25881;47.462;19.304;2024-02-21T03:21:45;7.93;;;3.57;;
40162;SDS011;25881;47.462;19.304;2024-02-21T03:24:10;10.30;;;3.33;;
40162;SDS011;25881;47.462;19.304;2024-02-21T03:26:36;9.17;;;3.13;;
40162;SDS011;25881;47.462;19.304;2024-02-21T03:29:01;5.93;;;3.40;;
40162;SDS011;25881;47.462;19.304;2024-02-21T03:31:26;7.07;;;3.33;;
40162;SDS011;25881;47.462;19.304;2024-02-21T03:33:52;8.10;;;3.08;;
40162;SDS011;25881;47.462;19.304;2024-02-21T03:36:17;6.63;;;2.90;;
40162;SDS011;25881;47.462;19.304;2024-02-21T03:38:43;9.03;;;3.83;;
40162;SDS011;25881;47.462;19.304;2024-02-21T03:41:08;11.03;;;3.33;;
40162;SDS011;25881;47.462;19.304;2024-02-21T03:43:33;10.53;;;3.87;;
40162;SDS011;25881;47.462;19.304;2024-02-21T03:45:58;8.90;;;3.67;;
40162;SDS011;25881;47.462;19.304;2024-02-21T03:48:24;6.88;;;3.42;;
40162;SDS011;25881;47.462;19.304;2024-02-21T03:50:49;7.13;;;3.90;;
40162;SDS011;25881;47.462;19.304;2024-02-21T03:53:14;8.80;;;3.50;;
40162;SDS011;25881;47.462;19.304;2024-02-21T03:55:39;6.47;;;3.57;;
40162;SDS011;25881;47.462;19.304;2024-02-21T03:58:05;9.68;;;3.97;;
40162;SDS011;25881;47.462;19.304;2024-02-21T04:00:30;7.60;;;4.07;;
40162;SDS011;25881;47.462;19.304;2024-02-21T04:02:55;7.37;;;3.50;;
40162;SDS011;25881;47.462;19.304;2024-02-21T04:05:20;7.88;;;2.80;;
40162;SDS011;25881;47.462;19.304;2024-02-21T04:07:46;6.20;;;3.33;;
40162;SDS011;25881;47.462;19.304;2024-02-21T04:10:11;6.32;;;3.05;;
40162;SDS011;25881;47.462;19.304;2024-02-21T04:12:37;8.93;;;4.00;;
40162;SDS011;25881;47.462;19.304;2024-02-21T04:15:03;9.32;;;3.63;;
40162;SDS011;25881;47.462;19.304;2024-02-21T04:17:28;9.00;;;3.95;;
40162;SDS011;25881;47.462;19.304;2024-02-21T04:19:56;8.32;;;3.88;;
40162;SDS011;25881;47.462;19.304;2024-02-21T04:22:26;9.77;;;4.03;;
40162;SDS011;25881;47.462;19.304;2024-02-21T04:24:51;7.90;;;4.30;;
40162;SDS011;25881;47.462;19.304;2024-02-21T04:27:16;10.40;;;4.37;;
40162;SDS011;25881;47.462;19.304;2024-02-21T04:29:41;7.47;;;3.90;;
40162;SDS011;25881;47.462;19.304;2024-02-21T04:32:07;11.77;;;4.63;;
40162;SDS011;25881;47.462;19.304;2024-02-21T04:34:33;9.60;;;4.03;;
40162;SDS011;25881;47.462;19.304;2024-02-21T04:36:58;8.77;;;4.03;;
40162;SDS011;25881;47.462;19.304;2024-02-21T04:39:23;8.23;;;3.67;;
40162;SDS011;25881;47.462;19.304;2024-02-21T04:41:48;10.73;;;3.77;;
40162;SDS011;25881;47.462;19.304;2024-02-21T04:44:13;6.57;;;3.07;;
40162;SDS011;25881;47.462;19.304;2024-02-21T04:46:41;8.90;;;4.00;;
40162;SDS011;25881;47.462;19.304;2024-02-21T04:49:06;11.65;;;4.32;;
40162;SDS011;25881;47.462;19.304;2024-02-21T04:51:32;9.70;;;5.13;;
40162;SDS011;25881;47.462;19.304;2024-02-21T04:53:57;8.53;;;4.60;;
40162;SDS011;25881;47.462;19.304;2024-02-21T04:56:22;13.07;;;6.17;;
40162;SDS011;25881;47.462;19.304;2024-02-21T04:58:47;15.33;;;7.17;;
40162;SDS011;25881;47.462;19.304;2024-02-21T05:01:12;12.07;;;5.53;;
40162;SDS011;25881;47.462;19.304;2024-02-21T05:03:38;10.50;;;5.03;;
40162;SDS011;25881;47.462;19.304;2024-02-21T05:06:03;10.68;;;4.85;;
40162;SDS011;25881;47.462;19.304;2024-02-21T05:08:29;10.82;;;5.20;;
40162;SDS011;25881;47.462;19.304;2024-02-21T05:10:54;9.37;;;5.30;;
40162;SDS011;25881;47.462;19.304;2024-02-21T05:13:19;9.32;;;4.45;;
40162;SDS011;25881;47.462;19.304;2024-02-21T05:15:44;10.23;;;4.50;;
40162;SDS011;25881;47.462;19.304;2024-02-21T05:18:10;10.80;;;4.90;;
40162;SDS011;25881;47.462;19.304;2024-02-21T05:20:35;9.00;;;5.10;;
40162;SDS011;25881;47.462;19.304;2024-02-21T05:23:00;12.60;;;5.23;;
40162;SDS011;25881;47.462;19.304;2024-02-21T05:25:25;11.63;;;5.00;;
40162;SDS011;25881;47.462;19.304;2024-02-21T05:27:51;13.10;;;5.87;;
40162;SDS011;25881;47.462;19.304;2024-02-21T05:30:18;9.30;;;5.30;;
40162;SDS011;25881;47.462;19.304;2024-02-21T05:32:43;13.17;;;5.93;;
40162;SDS011;25881;47.462;19.304;2024-02-21T05:35:08;14.40;;;8.00;;
40162;SDS011;25881;47.462;19.304;2024-02-21T05:37:33;16.58;;;6.70;;
40162;SDS011;25881;47.462;19.304;2024-02-21T05:39:59;12.37;;;6.40;;
40162;SDS011;25881;47.462;19.304;2024-02-21T05:42:24;15.43;;;6.43;;
40162;SDS011;25881;47.462;19.304;2024-02-21T05:44:49;12.10;;;6.60;;
40162;SDS011;25881;47.462;19.304;2024-02-21T05:47:14;9.63;;;6.80;;
40162;SDS011;25881;47.462;19.304;2024-02-21T05:49:40;17.40;;;7.35;;
40162;SDS011;25881;47.462;19.304;2024-02-21T05:52:05;13.05;;;6.80;;
40162;SDS011;25881;47.462;19.304;2024-02-21T05:54:31;12.60;;;7.10;;
40162;SDS011;25881;47.462;19.304;2024-02-21T05:56:56;15.90;;;7.33;;
40162;SDS011;25881;47.462;19.304;2024-02-21T05:59:22;11.82;;;6.85;;
40162;SDS011;25881;47.462;19.304;2024-02-21T06:01:54;13.70;;;7.97;;
40162;SDS011;25881;47.462;19.304;2024-02-21T06:04:21;14.90;;;7.90;;
40162;SDS011;25881;47.462;19.304;2024-02-21T06:06:46;13.60;;;7.53;;
40162;SDS011;25881;47.462;19.304;2024-02-21T06:09:11;15.03;;;7.73;;
40162;SDS011;25881;47.462;19.304;2024-02-21T06:11:36;17.30;;;8.00;;
40162;SDS011;25881;47.462;19.304;2024-02-21T06:14:02;13.80;;;7.05;;
40162;SDS011;25881;47.462;19.304;2024-02-21T06:16:27;11.13;;;7.53;;
40162;SDS011;25881;47.462;19.304;2024-02-21T06:18:53;11.38;;;7.10;;
40162;SDS011;25881;47.462;19.304;2024-02-21T06:21:18;11.47;;;7.53;;
40162;SDS011;25881;47.462;19.304;2024-02-21T06:23:43;13.00;;;7.65;;
40162;SDS011;25881;47.462;19.304;2024-02-21T06:26:08;14.57;;;8.63;;
40162;SDS011;25881;47.462;19.304;2024-02-21T06:28:34;11.65;;;7.82;;
40162;SDS011;25881;47.462;19.304;2024-02-21T06:31:00;13.37;;;7.03;;
40162;SDS011;25881;47.462;19.304;2024-02-21T06:33:25;13.23;;;8.53;;
40162;SDS011;25881;47.462;19.304;2024-02-21T06:35:50;16.40;;;7.30;;
40162;SDS011;25881;47.462;19.304;2024-02-21T06:38:18;12.77;;;7.60;;
40162;SDS011;25881;47.462;19.304;2024-02-21T06:40:43;14.65;;;8.30;;
40162;SDS011;25881;47.462;19.304;2024-02-21T06:43:13;12.82;;;7.72;;
40162;SDS011;25881;47.462;19.304;2024-02-21T06:45:39;15.87;;;8.20;;
40162;SDS011;25881;47.462;19.304;2024-02-21T06:48:04;16.97;;;8.80;;
40162;SDS011;25881;47.462;19.304;2024-02-21T06:50:29;11.70;;;7.75;;
40162;SDS011;25881;47.462;19.304;2024-02-21T06:52:54;14.63;;;8.10;;
40162;SDS011;25881;47.462;19.304;2024-02-21T06:55:20;12.57;;;8.53;;
40162;SDS011;25881;47.462;19.304;2024-02-21T06:57:45;11.33;;;7.50;;
40162;SDS011;25881;47.462;19.304;2024-02-21T07:00:10;16.10;;;8.33;;
40162;SDS011;25881;47.462;19.304;2024-02-21T07:02:36;12.90;;;8.18;;
40162;SDS011;25881;47.462;19.304;2024-02-21T07:05:01;14.20;;;7.77;;
40162;SDS011;25881;47.462;19.304;2024-02-21T07:07:26;11.05;;;7.18;;
40162;SDS011;25881;47.462;19.304;2024-02-21T07:09:51;12.80;;;8.37;;
40162;SDS011;25881;47.462;19.304;2024-02-21T07:12:18;12.88;;;7.82;;
40162;SDS011;25881;47.462;19.304;2024-02-21T07:14:44;15.63;;;8.33;;
40162;SDS011;25881;47.462;19.304;2024-02-21T07:17:09;18.00;;;8.38;;
40162;SDS011;25881;47.462;19.304;2024-02-21T07:19:34;24.30;;;9.98;;
40162;SDS011;25881;47.462;19.304;2024-02-21T07:22:00;17.73;;;8.27;;
40162;SDS011;25881;47.462;19.304;2024-02-21T07:24:25;17.17;;;7.93;;
40162;SDS011;25881;47.462;19.304;2024-02-21T07:26:51;13.33;;;7.07;;
40162;SDS011;25881;47.462;19.304;2024-02-21T07:29:16;10.67;;;6.43;;
40162;SDS011;25881;47.462;19.304;2024-02-21T07:31:42;12.87;;;6.87;;
40162;SDS011;25881;47.462;19.304;2024-02-21T07:34:07;11.30;;;7.40;;
40162;SDS011;25881;47.462;19.304;2024-02-21T07:36:32;12.82;;;7.45;;
40162;SDS011;25881;47.462;19.304;2024-02-21T07:38:58;17.98;;;7.35;;
40162;SDS011;25881;47.462;19.304;2024-02-21T07:41:23;14.17;;;6.93;;
40162;SDS011;25881;47.462;19.304;2024-02-21T07:43:48;14.88;;;7.13;;
40162;SDS011;25881;47.462;19.304;2024-02-21T07:46:14;14.33;;;7.43;;
40162;SDS011;25881;47.462;19.304;2024-02-21T07:48:39;14.55;;;7.00;;
40162;SDS011;25881;47.462;19.304;2024-02-21T07:51:04;12.23;;;7.03;;
40162;SDS011;25881;47.462;19.304;2024-02-21T07:53:29;13.50;;;7.17;;
40162;SDS011;25881;47.462;19.304;2024-02-21T07:55:55;15.73;;;7.13;;
40162;SDS011;25881;47.462;19.304;2024-02-21T07:58:20;12.90;;;7.03;;
40162;SDS011;25881;47.462;19.304;2024-02-21T08:00:45;12.73;;;7.40;;
40162;SDS011;25881;47.462;19.304;2024-02-21T08:03:10;17.30;;;7.30;;
40162;SDS011;25881;47.462;19.304;2024-02-21T08:05:35;17.70;;;6.07;;
40162;SDS011;25881;47.462;19.304;2024-02-21T08:08:01;11.30;;;5.73;;
40162;SDS011;25881;47.462;19.304;2024-02-21T08:10:27;11.68;;;6.05;;
40162;SDS011;25881;47.462;19.304;2024-02-21T08:12:52;9.37;;;5.43;;
40162;SDS011;25881;47.462;19.304;2024-02-21T08:15:18;13.43;;;5.97;;
40162;SDS011;25881;47.462;19.304;2024-02-21T08:17:43;15.73;;;6.33;;
40162;SDS011;25881;47.462;19.304;2024-02-21T08:20:08;15.17;;;5.47;;
40162;SDS011;25881;47.462;19.304;2024-02-21T08:22:34;9.60;;;5.10;;
40162;SDS011;25881;47.462;19.304;2024-02-21T08:25:02;13.48;;;5.18;;
40162;SDS011;25881;47.462;19.304;2024-02-21T08:27:27;16.40;;;5.70;;
40162;SDS011;25881;47.462;19.304;2024-02-21T08:29:53;8.93;;;4.60;;
40162;SDS011;25881;47.462;19.304;2024-02-21T08:32:18;14.40;;;5.30;;
40162;SDS011;25881;47.462;19.304;2024-02-21T08:34:43;14.53;;;5.33;;
40162;SDS011;25881;47.462;19.304;2024-02-21T08:37:08;11.47;;;5.10;;
40162;SDS011;25881;47.462;19.304;2024-02-21T08:39:35;14.30;;;5.28;;
40162;SDS011;25881;47.462;19.304;2024-02-21T08:42:00;15.00;;;4.70;;
40162;SDS011;25881;47.462;19.304;2024-02-21T08:44:27;14.90;;;5.90;;
40162;SDS011;25881;47.462;19.304;2024-02-21T08:46:52;16.58;;;6.13;;
40162;SDS011;25881;47.462;19.304;2024-02-21T08:49:18;12.00;;;5.23;;
40162;SDS011;25881;47.462;19.304;2024-02-21T08:51:43;15.10;;;4.90;;
40162;SDS011;25881;47.462;19.304;2024-02-21T08:54:08;17.65;;;5.82;;
40162;SDS011;25881;47.462;19.304;2024-02-21T08:56:34;17.40;;;5.17;;
40162;SDS011;25881;47.462;19.304;2024-02-21T08:59:00;10.48;;;4.75;;
40162;SDS011;25881;47.462;19.304;2024-02-21T09:01:25;9.57;;;4.50;;
40162;SDS011;25881;47.462;19.304;2024-02-21T09:03:51;12.45;;;4.95;;
40162;SDS011;25881;47.462;19.304;2024-02-21T09:06:18;11.98;;;4.85;;
40162;SDS011;25881;47.462;19.304;2024-02-21T09:08:44;16.33;;;5.28;;
40162;SDS011;25881;47.462;19.304;2024-02-21T09:11:10;11.60;;;4.30;;
40162;SDS011;25881;47.462;19.304;2024-02-21T09:13:35;15.97;;;4.83;;
40162;SDS011;25881;47.462;19.304;2024-02-21T09:16:00;12.10;;;4.83;;
40162;SDS011;25881;47.462;19.304;2024-02-21T09:18:25;13.17;;;4.30;;
40162;SDS011;25881;47.462;19.304;2024-02-21T09:20:50;14.43;;;6.93;;
40162;SDS011;25881;47.462;19.304;2024-02-21T09:23:16;13.30;;;4.35;;
40162;SDS011;25881;47.462;19.304;2024-02-21T09:25:41;8.75;;;4.47;;
40162;SDS011;25881;47.462;19.304;2024-02-21T09:28:07;11.57;;;4.27;;
40162;SDS011;25881;47.462;19.304;2024-02-21T09:30:32;9.73;;;4.73;;
40162;SDS011;25881;47.462;19.304;2024-02-21T09:32:57;12.20;;;4.88;;
40162;SDS011;25881;47.462;19.304;2024-02-21T09:35:24;11.73;;;4.20;;
40162;SDS011;25881;47.462;19.304;2024-02-21T09:37:51;15.52;;;5.40;;
40162;SDS011;25881;47.462;19.304;2024-02-21T09:40:17;12.60;;;5.55;;
40162;SDS011;25881;47.462;19.304;2024-02-21T09:42:42;13.73;;;5.13;;
40162;SDS011;25881;47.462;19.304;2024-02-21T09:50:10;15.70;;;4.75;;
40162;SDS011;25881;47.462;19.304;2024-02-21T09:52:35;14.63;;;5.00;;
40162;SDS011;25881;47.462;19.304;2024-02-21T09:55:01;13.50;;;4.50;;
40162;SDS011;25881;47.462;19.304;2024-02-21T09:57:27;11.43;;;4.40;;
40162;SDS011;25881;47.462;19.304;2024-02-21T09:59:53;10.65;;;5.30;;
40162;SDS011;25881;47.462;19.304;2024-02-21T10:02:20;13.27;;;5.15;;
40162;SDS011;25881;47.462;19.304;2024-02-21T10:04:45;12.87;;;5.10;;
40162;SDS011;25881;47.462;19.304;2024-02-21T10:07:11;9.57;;;5.90;;
40162;SDS011;25881;47.462;19.304;2024-02-21T10:09:36;9.48;;;5.45;;
40162;SDS011;25881;47.462;19.304;2024-02-21T10:12:08;10.97;;;5.23;;
40162;SDS011;25881;47.462;19.304;2024-02-21T10:14:34;11.13;;;5.53;;
40162;SDS011;25881;47.462;19.304;2024-02-21T10:16:59;15.03;;;5.03;;
40162;SDS011;25881;47.462;19.304;2024-02-21T10:19:24;9.17;;;4.43;;
40162;SDS011;25881;47.462;19.304;2024-02-21T10:22:00;10.23;;;5.22;;
40162;SDS011;25881;47.462;19.304;2024-02-21T10:24:26;11.32;;;4.82;;
40162;SDS011;25881;47.462;19.304;2024-02-21T10:26:58;10.85;;;4.65;;
40162;SDS011;25881;47.462;19.304;2024-02-21T10:29:23;18.42;;;5.65;;
40162;SDS011;25881;47.462;19.304;2024-02-21T10:31:49;14.32;;;5.88;;
40162;SDS011;25881;47.462;19.304;2024-02-21T10:34:16;13.73;;;4.90;;
40162;SDS011;25881;47.462;19.304;2024-02-21T10:36:41;11.17;;;5.27;;
40162;SDS011;25881;47.462;19.304;2024-02-21T10:39:06;10.10;;;4.80;;
40162;SDS011;25881;47.462;19.304;2024-02-21T10:41:32;11.77;;;4.63;;
40162;SDS011;25881;47.462;19.304;2024-02-21T10:43:57;8.80;;;3.63;;
40162;SDS011;25881;47.462;19.304;2024-02-21T10:46:23;9.55;;;4.75;;
40162;SDS011;25881;47.462;19.304;2024-02-21T10:48:53;12.77;;;4.38;;
40162;SDS011;25881;47.462;19.304;2024-02-21T10:51:21;7.97;;;4.13;;
40162;SDS011;25881;47.462;19.304;2024-02-21T10:58:45;10.25;;;4.50;;
40162;SDS011;25881;47.462;19.304;2024-02-21T11:01:11;10.30;;;3.57;;
40162;SDS011;25881;47.462;19.304;2024-02-21T11:03:37;9.40;;;3.72;;
40162;SDS011;25881;47.462;19.304;2024-02-21T11:06:03;10.25;;;3.40;;
40162;SDS011;25881;47.462;19.304;2024-02-21T11:08:30;13.15;;;3.72;;
40162;SDS011;25881;47.462;19.304;2024-02-21T11:10:58;12.98;;;4.40;;
40162;SDS011;25881;47.462;19.304;2024-02-21T11:13:37;8.70;;;4.25;;
40162;SDS011;25881;47.462;19.304;2024-02-21T11:16:07;11.60;;;4.37;;
40162;SDS011;25881;47.462;19.304;2024-02-21T11:18:32;12.68;;;5.65;;
40162;SDS011;25881;47.462;19.304;2024-02-21T11:20:57;11.13;;;4.23;;
40162;SDS011;25881;47.462;19.304;2024-02-21T11:23:26;10.20;;;3.87;;
40162;SDS011;25881;47.462;19.304;2024-02-21T11:25:51;9.27;;;4.22;;
40162;SDS011;25881;47.462;19.304;2024-02-21T11:28:17;9.60;;;3.95;;
40162;SDS011;25881;47.462;19.304;2024-02-21T11:30:50;17.67;;;4.07;;
40162;SDS011;25881;47.462;19.304;2024-02-21T11:33:16;7.85;;;3.10;;
40162;SDS011;25881;47.462;19.304;2024-02-21T11:35:43;10.88;;;3.13;;
40162;SDS011;25881;47.462;19.304;2024-02-21T11:38:09;12.10;;;3.83;;
40162;SDS011;25881;47.462;19.304;2024-02-21T11:40:35;10.48;;;3.05;;
40162;SDS011;25881;47.462;19.304;2024-02-21T11:43:00;12.30;;;4.18;;
40162;SDS011;25881;47.462;19.304;2024-02-21T11:45:25;8.67;;;3.37;;
40162;SDS011;25881;47.462;19.304;2024-02-21T11:47:51;14.68;;;3.10;;
40162;SDS011;25881;47.462;19.304;2024-02-21T11:50:16;10.03;;;2.90;;
40162;SDS011;25881;47.462;19.304;2024-02-21T11:52:41;9.53;;;3.27;;
40162;SDS011;25881;47.462;19.304;2024-02-21T11:55:06;12.10;;;3.77;;
40162;SDS011;25881;47.462;19.304;2024-02-21T11:57:33;16.33;;;3.78;;
40162;SDS011;25881;47.462;19.304;2024-02-21T12:00:09;13.65;;;3.88;;
40162;SDS011;25881;47.462;19.304;2024-02-21T12:02:35;11.85;;;3.67;;
40162;SDS011;25881;47.462;19.304;2024-02-21T12:05:00;9.95;;;3.45;;
40162;SDS011;25881;47.462;19.304;2024-02-21T12:07:25;12.90;;;4.10;;
40162;SDS011;25881;47.462;19.304;2024-02-21T12:09:53;10.40;;;3.70;;
40162;SDS011;25881;47.462;19.304;2024-02-21T12:12:21;10.70;;;3.60;;
40162;SDS011;25881;47.462;19.304;2024-02-21T12:14:46;10.43;;;3.60;;
40162;SDS011;25881;47.462;19.304;2024-02-21T12:17:18;11.48;;;4.28;;
40162;SDS011;25881;47.462;19.304;2024-02-21T12:19:44;7.05;;;3.53;;
40162;SDS011;25881;47.462;19.304;2024-02-21T12:22:15;18.73;;;4.05;;
40162;SDS011;25881;47.462;19.304;2024-02-21T12:24:41;8.63;;;3.47;;
40162;SDS011;25881;47.462;19.304;2024-02-21T12:27:12;9.90;;;4.18;;
40162;SDS011;25881;47.462;19.304;2024-02-21T12:29:37;12.82;;;4.05;;
40162;SDS011;25881;47.462;19.304;2024-02-21T12:32:02;11.63;;;3.60;;
40162;SDS011;25881;47.462;19.304;2024-02-21T12:34:29;10.70;;;4.47;;
40162;SDS011;25881;47.462;19.304;2024-02-21T12:36:56;10.32;;;4.05;;
40162;SDS011;25881;47.462;19.304;2024-02-21T12:39:22;10.07;;;3.87;;
40162;SDS011;25881;47.462;19.304;2024-02-21T12:41:47;11.10;;;4.53;;
40162;SDS011;25881;47.462;19.304;2024-02-21T12:44:12;11.00;;;4.03;;
40162;SDS011;25881;47.462;19.304;2024-02-21T12:46:37;10.10;;;3.63;;
40162;SDS011;25881;47.462;19.304;2024-02-21T12:49:03;17.48;;;5.50;;
40162;SDS011;25881;47.462;19.304;2024-02-21T12:51:31;14.02;;;4.35;;
40162;SDS011;25881;47.462;19.304;2024-02-21T12:53:57;21.02;;;4.38;;
40162;SDS011;25881;47.462;19.304;2024-02-21T12:56:22;12.80;;;3.80;;
40162;SDS011;25881;47.462;19.304;2024-02-21T12:58:47;10.80;;;3.95;;
40162;SDS011;25881;47.462;19.304;2024-02-21T13:01:13;10.07;;;4.07;;
40162;SDS011;25881;47.462;19.304;2024-02-21T13:03:38;13.73;;;4.20;;
40162;SDS011;25881;47.462;19.304;2024-02-21T13:06:03;10.93;;;3.40;;
40162;SDS011;25881;47.462;19.304;2024-02-21T13:08:29;11.38;;;4.07;;
40162;SDS011;25881;47.462;19.304;2024-02-21T13:10:54;10.02;;;4.07;;
40162;SDS011;25881;47.462;19.304;2024-02-21T13:13:19;12.47;;;4.17;;
40162;SDS011;25881;47.462;19.304;2024-02-21T13:15:44;17.77;;;6.57;;
40162;SDS011;25881;47.462;19.304;2024-02-21T13:18:10;16.45;;;7.00;;
40162;SDS011;25881;47.462;19.304;2024-02-21T13:20:35;14.05;;;4.85;;
40162;SDS011;25881;47.462;19.304;2024-02-21T13:23:00;9.88;;;4.15;;
40162;SDS011;25881;47.462;19.304;2024-02-21T13:25:26;19.33;;;6.43;;
40162;SDS011;25881;47.462;19.304;2024-02-21T13:27:51;13.43;;;4.33;;
40162;SDS011;25881;47.462;19.304;2024-02-21T13:30:16;12.37;;;4.43;;
40162;SDS011;25881;47.462;19.304;2024-02-21T13:32:42;14.60;;;4.40;;
40162;SDS011;25881;47.462;19.304;2024-02-21T13:35:08;13.55;;;5.20;;
40162;SDS011;25881;47.462;19.304;2024-02-21T13:37:33;17.20;;;5.88;;
40162;SDS011;25881;47.462;19.304;2024-02-21T13:39:59;29.45;;;14.93;;
40162;SDS011;25881;47.462;19.304;2024-02-21T13:42:24;19.90;;;10.03;;
40162;SDS011;25881;47.462;19.304;2024-02-21T13:44:52;17.73;;;5.45;;
40162;SDS011;25881;47.462;19.304;2024-02-21T13:47:17;8.17;;;3.70;;
40162;SDS011;25881;47.462;19.304;2024-02-21T13:49:43;13.37;;;4.63;;
40162;SDS011;25881;47.462;19.304;2024-02-21T13:52:08;14.65;;;4.22;;
40162;SDS011;25881;47.462;19.304;2024-02-21T13:54:34;12.20;;;4.15;;
40162;SDS011;25881;47.462;19.304;2024-02-21T13:56:59;10.65;;;3.80;;
40162;SDS011;25881;47.462;19.304;2024-02-21T13:59:24;24.57;;;8.73;;
40162;SDS011;25881;47.462;19.304;2024-02-21T14:01:51;40.78;;;13.63;;
40162;SDS011;25881;47.462;19.304;2024-02-21T14:04:16;43.90;;;16.43;;
40162;SDS011;25881;47.462;19.304;2024-02-21T14:06:41;31.70;;;12.97;;
40162;SDS011;25881;47.462;19.304;2024-02-21T14:09:11;32.05;;;13.48;;
40162;SDS011;25881;47.462;19.304;2024-02-21T14:11:37;18.52;;;6.32;;
40162;SDS011;25881;47.462;19.304;2024-02-21T14:14:03;16.00;;;5.07;;
40162;SDS011;25881;47.462;19.304;2024-02-21T14:16:28;14.35;;;3.80;;
40162;SDS011;25881;47.462;19.304;2024-02-21T14:18:54;11.80;;;4.22;;
40162;SDS011;25881;47.462;19.304;2024-02-21T14:21:19;15.73;;;3.97;;
40162;SDS011;25881;47.462;19.304;2024-02-21T14:23:45;10.90;;;3.50;;
40162;SDS011;25881;47.462;19.304;2024-02-21T14:26:10;11.23;;;3.70;;